Time;durP1;ratioP1;P1;durP2;ratioP2;P2;SDS_P1;SDS_P2;PMS_P1;PMS_P2;Temp;Humidity;BMP_temperature;BMP_pressure;BME280_temperature;BME280_humidity;BME280_pressure;Samples;Min_cycle;Max_cycle;Signal;HPM_P1;HPM_P2
2024/01/21 00:01:25;;;;;;;12.45;7.50;;;1.10;99.90;;;;;;4955513;28;20053;-59
2024/01/21 00:03:50;;;;;;;10.05;6.60;;;1.20;99.90;;;;;;4950892;28;20057;-59
2024/01/21 00:06:16;;;;;;;10.65;6.95;;;1.10;99.90;;;;;;4958681;28;20616;-59
2024/01/21 00:08:42;;;;;;;11.75;6.53;;;1.10;99.90;;;;;;4939828;28;20057;-60
2024/01/21 00:11:07;;;;;;;11.55;6.20;;;1.10;99.90;;;;;;4952021;28;20035;-60
2024/01/21 00:13:34;;;;;;;13.10;7.40;;;1.10;99.90;;;;;;4956660;28;20043;-60
2024/01/21 00:15:59;;;;;;;10.43;6.57;;;1.10;99.90;;;;;;4956713;28;20088;-58
2024/01/21 00:18:25;;;;;;;12.75;7.03;;;1.10;99.90;;;;;;4966124;28;20047;-59
2024/01/21 00:20:51;;;;;;;11.93;6.88;;;1.10;99.90;;;;;;4934233;28;20183;-60
2024/01/21 00:23:17;;;;;;;14.50;7.38;;;1.10;99.90;;;;;;4945454;28;20122;-58
2024/01/21 00:25:42;;;;;;;11.35;6.90;;;1.00;99.90;;;;;;4947890;28;20379;-59
2024/01/21 00:28:08;;;;;;;12.23;6.68;;;1.00;99.90;;;;;;4953450;28;20038;-60
2024/01/21 00:30:34;;;;;;;9.82;6.28;;;1.00;99.90;;;;;;4955703;28;20467;-60
2024/01/21 00:33:00;;;;;;;13.05;7.20;;;1.00;99.90;;;;;;4957024;28;20293;-58
2024/01/21 00:35:25;;;;;;;10.05;6.35;;;1.00;99.90;;;;;;4932390;28;20376;-60
2024/01/21 00:37:51;;;;;;;12.77;6.95;;;0.90;99.90;;;;;;4940191;28;20035;-60
2024/01/21 00:40:17;;;;;;;12.82;6.88;;;0.90;99.90;;;;;;4943837;28;20043;-58
2024/01/21 00:42:43;;;;;;;12.15;7.10;;;0.90;99.90;;;;;;4949806;28;20041;-59
2024/01/21 00:45:09;;;;;;;11.32;6.78;;;0.90;99.90;;;;;;4938258;28;20402;-59
2024/01/21 00:47:34;;;;;;;11.27;7.30;;;0.90;99.90;;;;;;4961268;28;20483;-59
2024/01/21 00:50:00;;;;;;;13.23;7.82;;;0.90;99.90;;;;;;4936220;28;20043;-58
2024/01/21 00:52:26;;;;;;;11.80;7.25;;;1.00;99.90;;;;;;4938199;28;20537;-60
2024/01/21 00:54:53;;;;;;;13.98;8.00;;;0.90;99.90;;;;;;4951676;28;20244;-60
2024/01/21 00:57:19;;;;;;;12.98;7.35;;;0.90;99.90;;;;;;4934682;28;20046;-57
2024/01/21 00:59:45;;;;;;;14.38;7.82;;;0.90;99.90;;;;;;4954541;28;20050;-58
2024/01/21 01:02:10;;;;;;;15.27;8.80;;;0.90;99.90;;;;;;4960334;28;20043;-59
2024/01/21 01:04:36;;;;;;;12.73;8.07;;;0.90;99.90;;;;;;4931774;28;20043;-59
2024/01/21 01:07:02;;;;;;;13.45;8.70;;;0.80;99.90;;;;;;4956139;28;20530;-59
2024/01/21 01:09:28;;;;;;;13.75;8.25;;;0.90;99.90;;;;;;4952361;28;20076;-58
2024/01/21 01:11:54;;;;;;;13.88;9.10;;;0.80;99.90;;;;;;4956070;28;20043;-59
2024/01/21 01:14:20;;;;;;;17.17;8.45;;;0.80;99.90;;;;;;4946223;28;20050;-58
2024/01/21 01:16:45;;;;;;;13.40;8.13;;;0.90;99.90;;;;;;4951238;28;20043;-56
2024/01/21 01:19:11;;;;;;;14.75;8.60;;;0.80;99.90;;;;;;4961990;28;20043;-60
2024/01/21 01:21:37;;;;;;;13.48;7.63;;;0.80;99.90;;;;;;4963672;28;20497;-60
2024/01/21 01:24:03;;;;;;;13.93;7.95;;;0.80;99.90;;;;;;4951436;28;20046;-60
2024/01/21 01:26:28;;;;;;;12.90;7.38;;;0.80;99.90;;;;;;4932730;28;20039;-59
2024/01/21 01:28:54;;;;;;;13.52;7.60;;;0.90;99.90;;;;;;4970372;28;20034;-60
2024/01/21 01:31:20;;;;;;;15.00;8.50;;;0.90;99.90;;;;;;4968334;28;20043;-60
2024/01/21 01:33:46;;;;;;;14.18;7.30;;;0.80;99.90;;;;;;4954728;28;20138;-60
2024/01/21 01:36:12;;;;;;;10.60;7.05;;;0.90;99.90;;;;;;4953637;28;20051;-59
2024/01/21 01:38:38;;;;;;;12.18;7.00;;;0.90;99.90;;;;;;4942576;28;20081;-58
2024/01/21 01:41:04;;;;;;;12.68;7.05;;;0.90;99.90;;;;;;4962612;28;20050;-59
2024/01/21 01:43:30;;;;;;;9.68;6.28;;;1.00;99.90;;;;;;4955890;28;20050;-60
2024/01/21 01:46:00;;;;;;;11.57;6.85;;;1.00;99.90;;;;;;4956233;28;20653;-59
2024/01/21 01:48:27;;;;;;;10.50;6.35;;;1.00;99.90;;;;;;4955077;28;20043;-59
2024/01/21 01:50:54;;;;;;;9.57;6.40;;;1.00;99.90;;;;;;4956048;28;20050;-58
2024/01/21 01:53:20;;;;;;;12.77;6.47;;;1.00;99.90;;;;;;4954400;28;20057;-58
2024/01/21 01:55:46;;;;;;;11.93;6.38;;;1.00;99.90;;;;;;4938696;28;20046;-60
2024/01/21 01:58:14;;;;;;;12.15;6.75;;;1.00;99.90;;;;;;4952559;28;20478;-57
2024/01/21 02:00:41;;;;;;;12.32;7.05;;;1.00;99.90;;;;;;4960702;28;20448;-59
2024/01/21 02:03:07;;;;;;;10.55;6.28;;;0.90;99.90;;;;;;4950192;28;20051;-58
2024/01/21 02:05:33;;;;;;;10.25;6.20;;;1.00;99.90;;;;;;4949373;28;20130;-58
2024/01/21 02:07:59;;;;;;;11.02;6.35;;;1.00;99.90;;;;;;4955845;28;20034;-59
2024/01/21 02:10:25;;;;;;;12.82;6.97;;;1.00;99.90;;;;;;4952144;28;20054;-59
2024/01/21 02:12:53;;;;;;;9.90;6.10;;;1.00;99.90;;;;;;4948579;28;20510;-60
2024/01/21 02:15:19;;;;;;;12.10;6.78;;;1.00;99.90;;;;;;4932795;28;20042;-60
2024/01/21 02:17:45;;;;;;;12.63;6.40;;;0.90;99.90;;;;;;4969078;28;20118;-59
2024/01/21 02:20:11;;;;;;;10.18;6.72;;;0.90;99.90;;;;;;4940614;28;20601;-60
2024/01/21 02:22:40;;;;;;;11.88;6.32;;;1.00;99.90;;;;;;4956509;28;20047;-60
2024/01/21 02:25:09;;;;;;;11.27;6.05;;;0.90;99.90;;;;;;4947556;28;20042;-59
2024/01/21 02:27:36;;;;;;;10.55;6.10;;;0.90;99.90;;;;;;4951158;28;20088;-59
2024/01/21 02:30:03;;;;;;;13.10;6.47;;;1.00;99.90;;;;;;4957522;28;20050;-59
2024/01/21 02:32:29;;;;;;;14.10;6.28;;;1.00;99.90;;;;;;4973771;28;20070;-59
2024/01/21 02:34:55;;;;;;;10.13;6.28;;;1.00;99.90;;;;;;4969078;23;20100;-76
2024/01/21 02:37:21;;;;;;;10.93;6.80;;;1.10;99.90;;;;;;4967809;28;20476;-76
2024/01/21 02:39:46;;;;;;;10.15;6.20;;;1.00;99.90;;;;;;4976282;28;20104;-76
2024/01/21 02:42:12;;;;;;;10.40;6.35;;;1.00;99.90;;;;;;4973993;28;20495;-76
2024/01/21 02:44:38;;;;;;;9.75;6.22;;;1.00;99.90;;;;;;4957063;28;20130;-76
2024/01/21 02:47:04;;;;;;;11.32;6.70;;;1.00;99.90;;;;;;4979704;28;20050;-76
2024/01/21 02:49:30;;;;;;;11.05;6.78;;;1.00;99.90;;;;;;4952211;28;20407;-76
2024/01/21 02:51:56;;;;;;;14.00;6.40;;;1.10;99.90;;;;;;4935256;28;22572;-76
2024/01/21 02:54:22;;;;;;;9.45;5.75;;;1.00;99.90;;;;;;4974565;28;20125;-76
2024/01/21 02:56:48;;;;;;;10.23;5.72;;;1.10;99.90;;;;;;4959703;28;20766;-76
2024/01/21 02:59:14;;;;;;;9.38;5.95;;;1.10;99.90;;;;;;4957564;28;20074;-76
2024/01/21 03:01:40;;;;;;;9.88;6.30;;;1.10;99.90;;;;;;4963879;28;20645;-76
2024/01/21 03:04:05;;;;;;;10.98;6.55;;;1.00;99.90;;;;;;4971481;28;20037;-76
2024/01/21 03:06:31;;;;;;;12.32;6.95;;;1.10;99.90;;;;;;4972328;28;20532;-76
2024/01/21 03:08:57;;;;;;;10.32;6.47;;;1.10;99.90;;;;;;4952410;28;20075;-76
2024/01/21 03:11:22;;;;;;;10.73;6.22;;;1.10;99.90;;;;;;4974236;28;20117;-76
2024/01/21 03:13:48;;;;;;;9.90;5.95;;;1.10;99.90;;;;;;4970895;28;20046;-76
2024/01/21 03:16:14;;;;;;;10.18;6.20;;;1.20;99.90;;;;;;4972945;28;20438;-76
2024/01/21 03:18:40;;;;;;;15.32;7.55;;;1.10;99.90;;;;;;4972899;28;20046;-77
2024/01/21 03:21:06;;;;;;;11.23;5.93;;;1.10;99.90;;;;;;5029450;28;20031;-76
2024/01/21 03:23:33;;;;;;;10.40;5.97;;;1.10;99.90;;;;;;4970020;28;20502;-76
2024/01/21 03:25:58;;;;;;;9.48;5.97;;;1.20;99.90;;;;;;4995569;28;20039;-76
2024/01/21 03:28:24;;;;;;;9.73;5.15;;;1.10;99.90;;;;;;4968602;28;20034;-76
2024/01/21 03:30:50;;;;;;;9.10;5.75;;;1.10;99.90;;;;;;4959580;28;20121;-76
2024/01/21 03:33:16;;;;;;;10.90;5.78;;;1.10;99.90;;;;;;4960583;28;20042;-76
2024/01/21 03:35:41;;;;;;;9.52;5.40;;;1.10;99.90;;;;;;4927767;28;20046;-76
2024/01/21 03:38:07;;;;;;;9.13;5.15;;;1.10;99.90;;;;;;5003972;28;20034;-76
2024/01/21 03:40:33;;;;;;;8.75;4.82;;;1.10;99.90;;;;;;4973382;28;20603;-76
2024/01/21 03:42:58;;;;;;;8.27;4.55;;;1.10;99.90;;;;;;4971835;28;20038;-76
2024/01/21 03:45:24;;;;;;;8.38;4.60;;;1.20;99.90;;;;;;4968412;28;20055;-76
2024/01/21 03:47:50;;;;;;;8.00;4.60;;;1.20;99.90;;;;;;4950532;28;20509;-76
2024/01/21 03:50:20;;;;;;;9.30;4.57;;;1.20;99.90;;;;;;4975400;28;20042;-76
2024/01/21 03:52:47;;;;;;;8.90;4.75;;;1.20;99.90;;;;;;4968227;28;20376;-76
2024/01/21 03:55:16;;;;;;;8.18;4.70;;;1.40;99.90;;;;;;4947547;28;20038;-76
2024/01/21 03:57:42;;;;;;;8.00;4.75;;;1.30;99.90;;;;;;4936174;28;20038;-76
2024/01/21 04:00:09;;;;;;;7.45;4.78;;;1.40;99.90;;;;;;4935560;28;20057;-76
2024/01/21 04:02:38;;;;;;;7.70;4.93;;;1.40;99.90;;;;;;5005082;28;20515;-75
2024/01/21 04:05:05;;;;;;;9.00;4.68;;;1.40;99.90;;;;;;4974189;28;20031;-76
2024/01/21 04:07:31;;;;;;;9.45;4.68;;;1.40;99.90;;;;;;4967914;28;20048;-76
2024/01/21 04:09:57;;;;;;;8.65;4.88;;;1.40;99.90;;;;;;4969448;28;20036;-76
2024/01/21 04:12:23;;;;;;;8.45;4.45;;;1.40;99.90;;;;;;4968578;28;20050;-76
2024/01/21 04:14:49;;;;;;;8.57;4.90;;;1.40;99.90;;;;;;4971606;28;20042;-76
2024/01/21 04:17:15;;;;;;;9.43;4.50;;;1.40;99.90;;;;;;4966861;28;20402;-76
2024/01/21 04:19:40;;;;;;;8.35;4.65;;;1.40;99.90;;;;;;4966633;28;20042;-76
2024/01/21 04:22:06;;;;;;;8.63;4.90;;;1.40;99.90;;;;;;4967251;28;20042;-76
2024/01/21 04:24:32;;;;;;;9.73;4.82;;;1.40;99.90;;;;;;4979320;28;20080;-76
2024/01/21 04:26:58;;;;;;;7.30;4.30;;;1.40;99.90;;;;;;4966509;28;22000;-76
2024/01/21 04:29:24;;;;;;;7.43;4.40;;;1.40;99.90;;;;;;4970435;28;20095;-76
2024/01/21 04:31:50;;;;;;;7.57;4.65;;;1.40;99.90;;;;;;4941176;28;20368;-76
2024/01/21 04:34:16;;;;;;;7.47;4.57;;;1.40;99.90;;;;;;4980323;28;20043;-76
2024/01/21 04:36:43;;;;;;;6.20;4.03;;;1.40;99.90;;;;;;4966351;28;20055;-76
2024/01/21 04:39:09;;;;;;;8.38;4.72;;;1.40;99.90;;;;;;4969999;28;20035;-77
2024/01/21 04:41:34;;;;;;;7.10;4.43;;;1.40;99.90;;;;;;4971642;28;20495;-77
2024/01/21 04:44:01;;;;;;;6.43;3.95;;;1.50;99.90;;;;;;4961585;28;20049;-77
2024/01/21 04:46:28;;;;;;;9.70;5.03;;;1.40;99.90;;;;;;4969027;28;20081;-77
2024/01/21 04:48:53;;;;;;;9.63;4.22;;;1.40;99.90;;;;;;5003756;28;20054;-77
2024/01/21 04:51:20;;;;;;;8.88;4.45;;;1.40;99.90;;;;;;5031792;28;20038;-76
2024/01/21 04:53:45;;;;;;;8.32;4.50;;;1.40;99.90;;;;;;4937797;28;20433;-76
2024/01/21 04:56:18;;;;;;;8.45;4.93;;;1.40;99.90;;;;;;5044025;28;20042;-77
2024/01/21 04:58:44;;;;;;;7.55;4.10;;;1.40;99.90;;;;;;4971964;28;20038;-76
2024/01/21 05:01:11;;;;;;;7.43;4.25;;;1.40;99.90;;;;;;4998218;28;20066;-77
2024/01/21 05:03:36;;;;;;;8.30;4.20;;;1.40;99.90;;;;;;4953187;28;20117;-77
2024/01/21 05:06:03;;;;;;;5.93;3.70;;;1.50;99.90;;;;;;4982433;28;20138;-76
2024/01/21 05:08:29;;;;;;;7.55;4.30;;;1.40;99.90;;;;;;4973116;28;20046;-76
2024/01/21 05:10:55;;;;;;;7.47;4.10;;;1.50;99.90;;;;;;4977446;28;20068;-76
2024/01/21 05:13:21;;;;;;;7.07;4.30;;;1.50;99.90;;;;;;4957384;28;21048;-76
2024/01/21 05:15:46;;;;;;;8.00;4.20;;;1.50;99.90;;;;;;4951741;28;20087;-76
2024/01/21 05:18:12;;;;;;;6.32;3.95;;;1.50;99.90;;;;;;4966450;28;20049;-76
2024/01/21 05:20:38;;;;;;;7.95;4.20;;;1.50;99.90;;;;;;4935620;28;20510;-76
2024/01/21 05:23:03;;;;;;;7.75;3.95;;;1.50;99.90;;;;;;4989875;28;20081;-77
2024/01/21 05:25:29;;;;;;;6.40;4.13;;;1.50;99.90;;;;;;4953637;28;20053;-76
2024/01/21 05:27:58;;;;;;;6.60;3.72;;;1.50;99.90;;;;;;4965982;28;20035;-77
2024/01/21 05:30:24;;;;;;;7.10;3.92;;;1.50;99.90;;;;;;4987981;28;20032;-77
2024/01/21 05:32:51;;;;;;;7.95;3.97;;;1.50;99.90;;;;;;4959674;28;20035;-77
2024/01/21 05:35:18;;;;;;;8.15;4.07;;;1.50;99.90;;;;;;4974127;28;20075;-76
2024/01/21 05:37:44;;;;;;;6.82;3.83;;;1.50;99.90;;;;;;4967869;28;20064;-76
2024/01/21 05:40:10;;;;;;;8.07;4.03;;;1.50;99.90;;;;;;4995893;28;20070;-76
2024/01/21 05:42:36;;;;;;;8.40;4.97;;;1.50;99.90;;;;;;4958443;28;20092;-76
2024/01/21 05:45:01;;;;;;;6.70;3.78;;;1.50;99.90;;;;;;4955671;28;20102;-76
2024/01/21 05:47:27;;;;;;;7.80;3.90;;;1.50;99.90;;;;;;5048904;28;20034;-76
2024/01/21 05:49:53;;;;;;;8.77;3.58;;;1.60;99.90;;;;;;4960963;28;20510;-76
2024/01/21 05:52:19;;;;;;;5.97;3.72;;;1.50;99.90;;;;;;4975674;28;20034;-76
2024/01/21 05:54:44;;;;;;;7.20;3.60;;;1.60;99.90;;;;;;4983246;28;20566;-76
2024/01/21 05:57:10;;;;;;;9.15;4.05;;;1.50;99.90;;;;;;4957935;28;20039;-76
2024/01/21 05:59:36;;;;;;;6.55;3.65;;;1.60;99.90;;;;;;4938056;28;20125;-76
2024/01/21 06:02:02;;;;;;;7.97;3.67;;;1.60;99.90;;;;;;5036763;28;20486;-76
2024/01/21 06:04:28;;;;;;;7.45;3.60;;;1.60;99.90;;;;;;4957210;28;20390;-76
2024/01/21 06:06:54;;;;;;;6.18;3.55;;;1.60;99.90;;;;;;4951940;28;20042;-76
2024/01/21 06:09:19;;;;;;;6.80;3.55;;;1.60;99.90;;;;;;4947793;28;20038;-76
2024/01/21 06:11:45;;;;;;;6.78;3.90;;;1.60;99.90;;;;;;5037438;28;20049;-77
2024/01/21 06:14:11;;;;;;;5.97;3.47;;;1.60;99.90;;;;;;4946922;28;20042;-76
2024/01/21 06:16:37;;;;;;;7.05;3.95;;;1.60;99.90;;;;;;4981670;28;20042;-76
2024/01/21 06:19:04;;;;;;;6.30;3.53;;;1.60;99.90;;;;;;4975041;28;20692;-76
2024/01/21 06:21:30;;;;;;;6.88;3.70;;;1.60;99.90;;;;;;4973329;28;20421;-76
2024/01/21 06:23:56;;;;;;;7.97;3.72;;;1.60;99.90;;;;;;4940972;28;20034;-76
2024/01/21 06:26:22;;;;;;;7.20;4.38;;;1.60;99.90;;;;;;4984194;28;20068;-77
2024/01/21 06:28:51;;;;;;;12.48;4.10;;;1.60;99.90;;;;;;4983317;28;20046;-77
2024/01/21 06:31:17;;;;;;;7.68;4.15;;;1.70;99.90;;;;;;4970811;28;20066;-76
2024/01/21 06:33:43;;;;;;;8.75;4.55;;;1.70;99.90;;;;;;4964540;28;20492;-76
2024/01/21 06:36:09;;;;;;;5.60;3.30;;;1.70;99.90;;;;;;4990629;28;20049;-76
2024/01/21 06:38:35;;;;;;;6.60;3.97;;;1.70;99.90;;;;;;4958230;28;20042;-76
2024/01/21 06:41:01;;;;;;;6.00;3.33;;;1.70;99.90;;;;;;4970441;28;20034;-77
2024/01/21 06:43:27;;;;;;;7.65;4.13;;;1.70;99.90;;;;;;4985450;28;20071;-76
2024/01/21 06:45:53;;;;;;;6.55;3.53;;;1.70;99.90;;;;;;5037593;28;20042;-76
2024/01/21 06:48:19;;;;;;;7.20;3.50;;;1.70;99.90;;;;;;4981396;28;20034;-76
2024/01/21 06:50:50;;;;;;;6.40;3.50;;;1.80;99.90;;;;;;4972661;28;20638;-76
2024/01/21 06:53:16;;;;;;;7.07;4.00;;;1.80;99.90;;;;;;5037799;28;20117;-76
2024/01/21 06:55:44;;;;;;;6.93;3.45;;;1.90;99.90;;;;;;4982094;28;20126;-76
2024/01/21 06:58:10;;;;;;;6.88;4.47;;;1.90;99.90;;;;;;4972493;28;20039;-76
2024/01/21 07:00:36;;;;;;;7.78;4.05;;;1.90;99.90;;;;;;5036683;28;20148;-76
2024/01/21 07:03:02;;;;;;;7.90;4.18;;;2.00;99.90;;;;;;4961290;28;20126;-76
2024/01/21 07:05:28;;;;;;;7.47;3.95;;;1.90;99.90;;;;;;4972248;28;20047;-77
2024/01/21 07:07:54;;;;;;;6.68;4.03;;;1.90;99.90;;;;;;4988950;28;20077;-76
2024/01/21 07:10:26;;;;;;;7.65;4.60;;;2.00;99.90;;;;;;4938386;28;20065;-76
2024/01/21 07:12:51;;;;;;;8.75;5.20;;;2.00;99.90;;;;;;4976018;28;20049;-75
2024/01/21 07:15:17;;;;;;;7.88;4.53;;;2.00;99.90;;;;;;4960047;28;20041;-75
2024/01/21 07:17:43;;;;;;;7.85;4.05;;;2.00;99.90;;;;;;4956690;28;20515;-75
2024/01/21 07:20:12;;;;;;;9.25;4.82;;;2.00;99.90;;;;;;4974404;28;20050;-75
2024/01/21 07:22:38;;;;;;;7.50;3.92;;;2.00;99.90;;;;;;4956459;28;20131;-74
2024/01/21 07:25:04;;;;;;;7.75;4.35;;;2.00;99.90;;;;;;5037079;28;20113;-75
2024/01/21 07:27:30;;;;;;;9.95;4.60;;;2.00;99.90;;;;;;5051649;28;20579;-75
2024/01/21 07:29:55;;;;;;;7.78;4.25;;;2.00;99.90;;;;;;4945945;28;20038;-74
2024/01/21 07:32:21;;;;;;;7.45;3.97;;;2.00;99.90;;;;;;4960378;28;20034;-75
2024/01/21 07:34:47;;;;;;;8.27;4.13;;;2.00;99.90;;;;;;4972370;28;20506;-75
2024/01/21 07:37:12;;;;;;;9.63;4.57;;;2.00;99.90;;;;;;4946868;28;20049;-75
2024/01/21 07:39:38;;;;;;;7.32;4.28;;;2.00;99.90;;;;;;4978698;28;20549;-75
2024/01/21 07:42:04;;;;;;;7.60;4.40;;;2.00;99.90;;;;;;4969856;28;20117;-75
2024/01/21 07:44:30;;;;;;;8.13;4.45;;;2.00;99.90;;;;;;4973040;28;20551;-74
2024/01/21 07:46:56;;;;;;;9.10;4.82;;;2.00;99.90;;;;;;4946958;28;20043;-75
2024/01/21 07:49:22;;;;;;;6.53;4.45;;;2.00;99.90;;;;;;4949021;28;20045;-75
2024/01/21 07:51:47;;;;;;;7.57;4.47;;;2.00;99.90;;;;;;4949043;28;20038;-74
2024/01/21 07:54:13;;;;;;;9.52;4.10;;;2.00;99.90;;;;;;4963197;28;20073;-74
2024/01/21 07:56:39;;;;;;;7.82;4.57;;;2.00;99.90;;;;;;4942356;28;20039;-75
2024/01/21 07:59:04;;;;;;;8.35;4.82;;;2.00;99.90;;;;;;4953434;28;20042;-75
2024/01/21 08:01:30;;;;;;;10.02;5.22;;;2.00;99.90;;;;;;4978926;28;20062;-75
2024/01/21 08:03:56;;;;;;;8.50;5.00;;;2.00;99.90;;;;;;4971738;28;20084;-75
2024/01/21 08:06:21;;;;;;;6.68;4.57;;;2.10;99.90;;;;;;4959770;28;20061;-75
2024/01/21 08:08:47;;;;;;;9.80;4.72;;;2.10;99.90;;;;;;5043584;28;20047;-75
2024/01/21 08:11:13;;;;;;;8.32;5.28;;;2.10;99.90;;;;;;4969443;28;20065;-75
2024/01/21 08:13:39;;;;;;;10.60;5.30;;;2.10;99.90;;;;;;4964952;28;20487;-75
2024/01/21 08:16:05;;;;;;;9.25;4.78;;;2.10;99.90;;;;;;4970266;28;20038;-76
2024/01/21 08:18:31;;;;;;;10.38;5.78;;;2.10;99.90;;;;;;4983963;28;20106;-75
2024/01/21 08:20:56;;;;;;;9.73;5.50;;;2.10;99.90;;;;;;4965691;28;20408;-75
2024/01/21 08:23:24;;;;;;;8.80;5.45;;;2.10;99.90;;;;;;4970987;28;20041;-76
2024/01/21 08:25:50;;;;;;;8.43;5.18;;;2.10;99.90;;;;;;4957865;28;20046;-76
2024/01/21 08:28:16;;;;;;;8.27;5.00;;;2.10;99.90;;;;;;4946125;28;20501;-75
2024/01/21 08:30:43;;;;;;;7.95;5.20;;;2.10;99.90;;;;;;4964153;28;20038;-76
2024/01/21 08:33:09;;;;;;;9.90;5.43;;;2.10;99.90;;;;;;4974700;28;20046;-76
2024/01/21 08:35:36;;;;;;;8.63;5.15;;;2.20;99.90;;;;;;4957529;28;20047;-75
2024/01/21 08:38:02;;;;;;;9.18;5.22;;;2.10;99.90;;;;;;4958835;28;20105;-76
2024/01/21 08:40:28;;;;;;;11.98;5.53;;;2.10;99.90;;;;;;4952748;28;20122;-75
2024/01/21 08:42:53;;;;;;;9.35;5.20;;;2.10;99.90;;;;;;4981810;28;20038;-75
2024/01/21 08:45:19;;;;;;;8.77;5.45;;;2.10;99.90;;;;;;4957645;28;20096;-76
2024/01/21 08:47:45;;;;;;;10.80;6.28;;;2.10;99.90;;;;;;4969502;28;20035;-75
2024/01/21 08:50:11;;;;;;;8.63;5.22;;;2.10;99.90;;;;;;4963915;28;20132;-75
2024/01/21 08:52:37;;;;;;;9.13;5.35;;;2.20;99.90;;;;;;5034689;28;20093;-76
2024/01/21 08:55:04;;;;;;;12.18;5.72;;;2.20;99.90;;;;;;4944642;28;20052;-76
2024/01/21 08:57:30;;;;;;;11.18;5.45;;;2.20;99.90;;;;;;4980799;28;20114;-76
2024/01/21 08:59:55;;;;;;;10.40;6.15;;;2.20;99.90;;;;;;4953142;28;20160;-76
2024/01/21 09:02:21;;;;;;;12.00;5.82;;;2.20;99.90;;;;;;4957345;28;20038;-76
2024/01/21 09:04:47;;;;;;;12.32;5.90;;;2.20;99.90;;;;;;4954549;28;20035;-76
2024/01/21 09:07:13;;;;;;;11.98;5.97;;;2.20;99.90;;;;;;4955881;28;20096;-76
2024/01/21 09:09:39;;;;;;;10.43;5.80;;;2.30;99.90;;;;;;4949497;28;20039;-76
2024/01/21 09:12:07;;;;;;;8.48;5.13;;;2.30;99.90;;;;;;4949276;28;20034;-76
2024/01/21 09:14:34;;;;;;;10.93;5.93;;;2.30;99.90;;;;;;4968551;28;20376;-76
2024/01/21 09:16:59;;;;;;;12.07;6.20;;;2.40;99.90;;;;;;4969061;28;20045;-76
2024/01/21 09:19:25;;;;;;;7.82;4.80;;;2.40;99.90;;;;;;4948364;28;20364;-76
2024/01/21 09:21:51;;;;;;;10.07;6.00;;;2.50;99.90;;;;;;4968454;28;20038;-76
2024/01/21 09:24:17;;;;;;;11.98;5.82;;;2.50;99.90;;;;;;4971439;28;20048;-76
2024/01/21 09:26:43;;;;;;;9.07;5.60;;;2.50;99.90;;;;;;4979414;28;20038;-76
2024/01/21 09:29:09;;;;;;;10.07;5.90;;;2.60;99.90;;;;;;4973486;28;20189;-76
2024/01/21 09:31:35;;;;;;;10.57;6.00;;;2.60;99.90;;;;;;5043390;28;20034;-76
2024/01/21 09:34:01;;;;;;;16.58;5.60;;;2.70;99.90;;;;;;4980649;28;20447;-76
2024/01/21 09:36:27;;;;;;;10.32;5.43;;;2.70;99.90;;;;;;4991736;28;20042;-76
2024/01/21 09:38:54;;;;;;;11.00;6.22;;;2.80;99.90;;;;;;4937973;28;20096;-76
2024/01/21 09:41:38;;;;;;;9.70;5.88;;;2.80;99.90;;;;;;4962636;28;20042;-76
2024/01/21 09:44:04;;;;;;;10.43;6.63;;;2.80;99.90;;;;;;4983617;28;20070;-76
2024/01/21 09:46:29;;;;;;;13.73;5.93;;;2.80;99.90;;;;;;4950415;28;20097;-76
2024/01/21 09:48:59;;;;;;;9.90;5.80;;;2.90;99.90;;;;;;4951901;28;20126;-76
2024/01/21 09:51:25;;;;;;;10.13;6.22;;;2.90;99.90;;;;;;4964581;28;20612;-76
2024/01/21 09:53:50;;;;;;;9.40;5.75;;;2.90;99.90;;;;;;4962477;28;20129;-75
2024/01/21 09:56:17;;;;;;;9.38;6.28;;;3.00;99.90;;;;;;4967588;28;20042;-75
2024/01/21 09:58:50;;;;;;;11.10;6.45;;;3.00;99.90;;;;;;4960980;28;20047;-76
2024/01/21 10:01:17;;;;;;;11.35;6.68;;;3.10;99.90;;;;;;4962286;28;20038;-76
2024/01/21 10:03:46;;;;;;;12.30;6.75;;;3.10;99.90;;;;;;4971581;28;20494;-76
2024/01/21 10:06:16;;;;;;;11.20;5.85;;;3.10;99.90;;;;;;4951294;28;20185;-75
2024/01/21 10:08:42;;;;;;;11.38;6.15;;;3.10;99.90;;;;;;4968751;28;20432;-75
2024/01/21 10:11:08;;;;;;;12.25;6.43;;;3.10;99.90;;;;;;4963518;28;20121;-75
2024/01/21 10:13:38;;;;;;;8.95;5.95;;;3.20;99.90;;;;;;4963327;28;20179;-75
2024/01/21 10:16:05;;;;;;;11.50;7.15;;;3.20;99.90;;;;;;4977418;28;20045;-76
2024/01/21 10:18:31;;;;;;;11.30;6.70;;;3.20;99.90;;;;;;4966089;28;20049;-75
2024/01/21 10:20:58;;;;;;;11.60;6.68;;;3.30;99.90;;;;;;4959904;28;20028;-75
2024/01/21 10:23:24;;;;;;;11.65;7.57;;;3.30;99.90;;;;;;4967174;28;20519;-76
2024/01/21 10:25:50;;;;;;;11.23;6.65;;;3.30;99.90;;;;;;4973342;28;20042;-76
2024/01/21 10:28:17;;;;;;;9.95;6.30;;;3.40;99.90;;;;;;4982428;28;20037;-75
2024/01/21 10:30:44;;;;;;;12.65;7.35;;;3.40;99.90;;;;;;4982828;28;20045;-75
2024/01/21 10:33:11;;;;;;;10.52;7.45;;;3.50;99.90;;;;;;4972931;28;20122;-76
2024/01/21 10:35:37;;;;;;;11.75;7.30;;;3.50;99.90;;;;;;4966585;28;20058;-75
2024/01/21 10:38:05;;;;;;;12.25;7.25;;;3.50;99.90;;;;;;4948284;28;20042;-75
2024/01/21 10:40:32;;;;;;;14.18;7.47;;;3.60;99.90;;;;;;4955664;28;20606;-75
2024/01/21 10:42:59;;;;;;;13.38;7.40;;;3.60;99.90;;;;;;4977716;28;20088;-75
2024/01/21 10:45:26;;;;;;;12.98;6.82;;;3.60;99.90;;;;;;4926149;28;20053;-76
2024/01/21 10:47:54;;;;;;;12.43;7.45;;;3.70;99.90;;;;;;4962680;28;20152;-76
2024/01/21 10:50:21;;;;;;;12.45;7.35;;;3.70;99.90;;;;;;4965209;28;20067;-76
2024/01/21 10:52:53;;;;;;;15.32;8.07;;;3.70;99.90;;;;;;4971723;28;20042;-76
2024/01/21 10:55:18;;;;;;;13.98;8.35;;;3.70;99.90;;;;;;4955744;28;20103;-75
2024/01/21 10:57:47;;;;;;;11.30;7.40;;;3.80;99.90;;;;;;4980282;28;20042;-76
2024/01/21 11:00:14;;;;;;;12.48;7.93;;;3.80;99.90;;;;;;4949831;28;20528;-76
2024/01/21 11:02:40;;;;;;;12.60;7.55;;;3.80;99.90;;;;;;4974137;28;20073;-76
2024/01/21 11:05:06;;;;;;;10.52;7.35;;;3.90;99.90;;;;;;4972375;28;20175;-75
2024/01/21 11:07:33;;;;;;;14.65;8.57;;;3.90;99.90;;;;;;4969281;28;20096;-76
2024/01/21 11:10:02;;;;;;;11.68;7.40;;;3.90;99.90;;;;;;4960997;28;20051;-76
2024/01/21 11:12:29;;;;;;;12.93;8.02;;;3.90;99.90;;;;;;4971591;28;20034;-76
2024/01/21 11:14:54;;;;;;;11.57;7.50;;;3.90;99.90;;;;;;4951907;28;20045;-76
2024/01/21 11:17:23;;;;;;;13.88;8.18;;;3.90;99.90;;;;;;4983504;28;20042;-76
2024/01/21 11:19:54;;;;;;;12.23;7.10;;;3.90;99.90;;;;;;4982958;28;20046;-75
2024/01/21 11:22:22;;;;;;;15.98;8.95;;;3.90;99.90;;;;;;4967505;28;20088;-76
2024/01/21 11:24:48;;;;;;;14.70;8.23;;;4.00;99.90;;;;;;4953179;28;20033;-75
2024/01/21 11:27:19;;;;;;;15.77;8.55;;;4.00;99.90;;;;;;4982393;28;20074;-75
2024/01/21 11:29:48;;;;;;;18.67;10.18;;;4.00;99.90;;;;;;4955547;28;20046;-75
2024/01/21 11:32:14;;;;;;;14.57;7.93;;;4.00;99.90;;;;;;4986430;28;20431;-76
2024/01/21 11:34:42;;;;;;;16.75;9.30;;;4.00;99.90;;;;;;4953065;28;20086;-75
2024/01/21 11:37:09;;;;;;;18.65;9.50;;;4.00;99.90;;;;;;4969103;28;20043;-75
2024/01/21 11:39:36;;;;;;;17.25;10.02;;;4.00;99.90;;;;;;4971546;28;20604;-76
2024/01/21 11:42:03;;;;;;;18.67;8.85;;;4.10;99.90;;;;;;4992097;28;20092;-76
2024/01/21 11:44:30;;;;;;;21.73;11.45;;;4.10;99.90;;;;;;4973652;28;20038;-76
2024/01/21 11:47:02;;;;;;;16.15;8.90;;;4.10;99.90;;;;;;4965831;28;20423;-76
2024/01/21 11:49:29;;;;;;;22.25;9.82;;;4.10;99.90;;;;;;4939454;28;20515;-76
2024/01/21 11:51:57;;;;;;;18.27;9.73;;;4.10;99.90;;;;;;4973270;28;20034;-76
2024/01/21 11:54:23;;;;;;;18.88;10.95;;;4.20;99.90;;;;;;4975938;28;20484;-76
2024/01/21 11:56:50;;;;;;;18.90;10.52;;;4.20;99.90;;;;;;4968255;28;20034;-75
2024/01/21 11:59:16;;;;;;;14.65;9.82;;;4.20;99.90;;;;;;4970845;28;20513;-76
2024/01/21 12:01:42;;;;;;;19.40;10.38;;;4.20;99.90;;;;;;4970015;28;20042;-76
2024/01/21 12:04:10;;;;;;;17.48;9.43;;;4.20;99.90;;;;;;4970962;28;20125;-76
2024/01/21 12:06:41;;;;;;;20.35;10.63;;;4.20;99.90;;;;;;4977268;28;20046;-75
2024/01/21 12:09:08;;;;;;;17.92;10.45;;;4.20;99.90;;;;;;4989744;28;20039;-76
2024/01/21 12:11:38;;;;;;;16.55;10.77;;;4.30;99.90;;;;;;4967364;28;20038;-75
2024/01/21 12:14:08;;;;;;;17.45;9.90;;;4.30;99.90;;;;;;4969803;28;20506;-75
2024/01/21 12:16:35;;;;;;;16.63;10.13;;;4.30;99.90;;;;;;4978092;28;20451;-75
2024/01/21 12:19:02;;;;;;;18.15;10.40;;;4.30;99.90;;;;;;4961058;28;20044;-76
2024/01/21 12:23:58;;;;;;;18.40;10.27;;;4.40;99.90;;;;;;4962466;28;20058;-62
2024/01/21 12:26:24;;;;;;;18.17;11.40;;;4.40;99.90;;;;;;5030473;28;20039;-63
2024/01/21 12:29:04;;;;;;;22.80;11.52;;;4.40;99.90;;;;;;5031824;28;20043;-63
2024/01/21 12:31:35;;;;;;;19.10;11.18;;;4.40;99.90;;;;;;5027316;28;20066;-63
2024/01/21 12:34:03;;;;;;;18.27;10.45;;;4.50;99.90;;;;;;5013260;28;20047;-63
2024/01/21 12:36:33;;;;;;;18.52;10.30;;;4.50;99.90;;;;;;5014986;28;20127;-61
2024/01/21 12:39:00;;;;;;;19.67;11.35;;;4.50;99.90;;;;;;5026914;28;20405;-61
2024/01/21 12:41:26;;;;;;;18.48;11.65;;;4.50;99.90;;;;;;5030393;28;20592;-61
2024/01/21 12:43:52;;;;;;;22.38;10.63;;;4.50;99.90;;;;;;5029257;28;20053;-61
2024/01/21 12:46:19;;;;;;;21.15;11.40;;;4.60;99.90;;;;;;4958870;28;20038;-62
2024/01/21 12:48:49;;;;;;;18.15;10.70;;;4.60;99.90;;;;;;5013420;28;20104;-61